Time;durP1;ratioP1;P1;durP2;ratioP2;P2;SDS_P1;SDS_P2;PMS_P1;PMS_P2;Temp;Humidity;BMP_temperature;BMP_pressure;BME280_temperature;BME280_humidity;BME280_pressure;Samples;Min_cycle;Max_cycle;Signal;HPM_P1;HPM_P2
2020/12/31 00:00:06;;;;;;;5.27;4.77;;;2.10;99.90;;;;;;5036652;28;20413;-45
2020/12/31 00:02:31;;;;;;;4.30;3.90;;;2.00;99.90;;;;;;5036765;28;20565;-44
2020/12/31 00:04:57;;;;;;;4.37;3.90;;;2.00;99.90;;;;;;5036383;28;20214;-45
2020/12/31 00:07:25;;;;;;;4.90;4.40;;;2.00;99.90;;;;;;5036736;28;20202;-45
2020/12/31 00:09:50;;;;;;;4.83;4.40;;;1.90;99.90;;;;;;5037014;28;20870;-45
2020/12/31 00:12:17;;;;;;;6.20;5.60;;;1.90;99.90;;;;;;5036602;28;20582;-45
2020/12/31 00:14:42;;;;;;;4.90;4.40;;;1.90;99.90;;;;;;5036562;28;20190;-45
2020/12/31 00:17:08;;;;;;;4.50;3.63;;;1.90;99.90;;;;;;5036669;28;20428;-45
2020/12/31 00:19:34;;;;;;;3.90;3.27;;;1.80;99.90;;;;;;5036425;28;20171;-45
2020/12/31 00:22:00;;;;;;;3.70;3.27;;;1.70;99.90;;;;;;5036622;28;20519;-46
2020/12/31 00:24:25;;;;;;;5.37;3.80;;;1.70;99.90;;;;;;5035479;28;20234;-46
2020/12/31 00:26:51;;;;;;;4.80;4.23;;;2.30;99.90;;;;;;5037445;28;20249;-46
2020/12/31 00:29:17;;;;;;;5.20;4.40;;;3.00;99.90;;;;;;5039352;28;20221;-46
2020/12/31 00:31:43;;;;;;;4.87;3.63;;;3.40;99.90;;;;;;5038600;28;20202;-46
2020/12/31 00:34:08;;;;;;;4.47;4.07;;;3.90;99.90;;;;;;5038482;28;20178;-44
2020/12/31 00:36:34;;;;;;;4.57;3.70;;;3.60;99.00;;;;;;5038714;28;20424;-45
2020/12/31 00:39:00;;;;;;;4.57;3.90;;;3.30;97.40;;;;;;5038816;28;20296;-45
2020/12/31 00:41:26;;;;;;;4.67;4.00;;;3.10;97.90;;;;;;5039425;28;20620;-45
2020/12/31 00:43:51;;;;;;;4.60;4.20;;;2.90;97.80;;;;;;5039860;28;20467;-45
2020/12/31 00:46:17;;;;;;;4.47;4.07;;;2.80;98.20;;;;;;5021967;28;20194;-45
2020/12/31 00:48:42;;;;;;;7.13;5.60;;;2.50;98.40;;;;;;5040215;28;20504;-45
2020/12/31 00:51:08;;;;;;;7.07;5.10;;;2.30;98.80;;;;;;5039668;28;20183;-45
2020/12/31 00:53:34;;;;;;;5.83;4.50;;;2.20;99.30;;;;;;5039376;28;20544;-45
2020/12/31 00:55:59;;;;;;;5.97;5.30;;;2.10;99.90;;;;;;5039188;28;20178;-45
2020/12/31 00:58:25;;;;;;;6.07;4.57;;;2.10;99.90;;;;;;5039719;28;20194;-44
2020/12/31 01:00:51;;;;;;;5.70;5.10;;;2.00;99.90;;;;;;5038664;28;20186;-44
2020/12/31 01:03:16;;;;;;;6.77;5.83;;;1.90;99.90;;;;;;5039310;28;20194;-44
2020/12/31 01:05:42;;;;;;;7.43;5.73;;;1.90;99.90;;;;;;5039637;28;20194;-44
2020/12/31 01:08:07;;;;;;;6.37;5.77;;;1.90;99.90;;;;;;5039608;28;20260;-45
2020/12/31 01:10:33;;;;;;;5.70;5.20;;;1.80;99.90;;;;;;5038889;28;20585;-45
2020/12/31 01:12:59;;;;;;;6.60;5.70;;;1.80;99.90;;;;;;5037965;28;20217;-44
2020/12/31 01:15:24;;;;;;;9.90;7.30;;;1.90;99.90;;;;;;5038888;28;20210;-44
2020/12/31 01:17:50;;;;;;;6.60;5.50;;;1.80;99.90;;;;;;5037880;28;20636;-44
2020/12/31 01:20:16;;;;;;;6.93;5.90;;;1.70;99.90;;;;;;5038999;28;20443;-45
2020/12/31 01:22:41;;;;;;;6.93;5.83;;;1.70;99.90;;;;;;5038705;28;20209;-45
2020/12/31 01:25:07;;;;;;;6.73;5.77;;;1.80;99.90;;;;;;5039556;28;20194;-44
2020/12/31 01:27:33;;;;;;;6.17;5.57;;;1.80;99.90;;;;;;5039165;28;20201;-44
2020/12/31 01:29:58;;;;;;;5.97;5.37;;;1.80;99.90;;;;;;5038870;28;20773;-44
2020/12/31 01:32:25;;;;;;;5.80;5.20;;;1.80;99.90;;;;;;5037837;28;20599;-44
2020/12/31 01:34:51;;;;;;;6.80;6.07;;;1.80;99.90;;;;;;5037038;28;20185;-44
2020/12/31 01:37:18;;;;;;;6.80;6.10;;;1.80;99.90;;;;;;5037044;28;20487;-45
2020/12/31 01:39:44;;;;;;;6.50;5.80;;;1.90;99.90;;;;;;5037831;28;20777;-44
2020/12/31 01:42:10;;;;;;;6.30;5.40;;;1.90;99.90;;;;;;5037614;28;20725;-44
2020/12/31 01:44:35;;;;;;;8.70;6.53;;;1.90;99.90;;;;;;5037788;28;20429;-44
2020/12/31 01:47:01;;;;;;;9.53;6.20;;;1.80;99.90;;;;;;5038571;28;20200;-44
2020/12/31 01:49:29;;;;;;;6.90;5.37;;;1.80;99.90;;;;;;5039160;28;20182;-44
2020/12/31 01:51:55;;;;;;;7.10;6.40;;;1.90;99.70;;;;;;5038145;28;20478;-44
2020/12/31 01:54:22;;;;;;;6.80;6.10;;;1.90;99.60;;;;;;5021048;28;20508;-45
2020/12/31 01:56:48;;;;;;;7.97;5.87;;;1.80;99.60;;;;;;5038829;28;20417;-44
2020/12/31 01:59:16;;;;;;;6.90;6.07;;;1.90;99.70;;;;;;5038405;28;20776;-44
2020/12/31 02:01:41;;;;;;;10.00;5.77;;;2.00;99.30;;;;;;5037552;28;20425;-44
2020/12/31 02:04:07;;;;;;;6.27;5.37;;;2.00;99.10;;;;;;5038731;28;20440;-44
2020/12/31 02:06:33;;;;;;;7.27;6.50;;;1.90;99.00;;;;;;5038232;28;20190;-44
2020/12/31 02:08:58;;;;;;;6.33;5.53;;;1.90;98.90;;;;;;5038541;28;20194;-45
2020/12/31 02:11:25;;;;;;;8.20;6.40;;;1.90;98.90;;;;;;5038005;28;20879;-44
2020/12/31 02:13:51;;;;;;;6.00;5.40;;;1.90;98.80;;;;;;5038487;28;20194;-45
2020/12/31 02:16:21;;;;;;;6.70;5.87;;;1.90;98.60;;;;;;5038386;28;20408;-44
2020/12/31 02:18:57;;;;;;;8.90;8.00;;;1.80;98.50;;;;;;5038383;28;20491;-44
2020/12/31 02:21:28;;;;;;;8.67;6.03;;;1.80;98.50;;;;;;5037979;28;20433;-44
2020/12/31 02:23:55;;;;;;;11.00;6.60;;;1.70;98.60;;;;;;5038030;28;20904;-45
2020/12/31 02:26:26;;;;;;;7.60;6.60;;;1.70;98.70;;;;;;5037580;28;20417;-44
2020/12/31 02:28:53;;;;;;;7.37;6.60;;;1.70;98.80;;;;;;5037958;28;20527;-44
2020/12/31 02:31:20;;;;;;;8.00;5.97;;;1.70;98.80;;;;;;5037911;28;20413;-44
2020/12/31 02:33:49;;;;;;;7.57;6.60;;;1.70;98.70;;;;;;5036643;28;20536;-44
2020/12/31 02:36:16;;;;;;;8.20;6.90;;;1.60;98.50;;;;;;5037933;28;20417;-44
2020/12/31 02:38:43;;;;;;;7.60;6.23;;;1.60;98.70;;;;;;5036185;28;20769;-44
2020/12/31 02:41:09;;;;;;;7.10;5.70;;;1.60;98.90;;;;;;5036006;28;20442;-44
2020/12/31 02:43:35;;;;;;;8.00;6.30;;;1.60;98.70;;;;;;5036518;28;20429;-44
2020/12/31 02:46:02;;;;;;;6.70;5.50;;;1.70;98.50;;;;;;5036818;28;20439;-45
2020/12/31 02:48:28;;;;;;;7.60;6.70;;;1.60;98.30;;;;;;5035547;28;20484;-44
2020/12/31 02:50:53;;;;;;;8.43;5.33;;;1.60;98.30;;;;;;5036291;28;20531;-44
2020/12/31 02:56:40;;;;;;;7.47;5.80;;;1.50;98.30;;;;;;5036933;28;20177;-44
2020/12/31 02:59:06;;;;;;;7.07;5.47;;;1.50;98.40;;;;;;5037116;28;20823;-44
2020/12/31 03:01:32;;;;;;;6.33;5.73;;;1.40;98.20;;;;;;5038118;28;20185;-44
2020/12/31 03:03:57;;;;;;;6.80;5.73;;;1.40;98.20;;;;;;5037837;28;20179;-44
2020/12/31 03:06:23;;;;;;;5.87;5.27;;;1.30;98.20;;;;;;5037325;28;20186;-44
2020/12/31 03:08:48;;;;;;;8.37;5.80;;;1.30;97.90;;;;;;5037635;28;20178;-45
2020/12/31 03:11:21;;;;;;;5.80;4.90;;;1.30;97.90;;;;;;5037695;28;20178;-44
2020/12/31 03:13:50;;;;;;;7.93;5.47;;;1.30;97.90;;;;;;5019903;28;20210;-45
2020/12/31 03:16:16;;;;;;;5.73;5.13;;;1.20;97.90;;;;;;5037511;28;20432;-44
2020/12/31 03:18:42;;;;;;;6.90;4.93;;;1.20;97.70;;;;;;5037345;28;20433;-44
2020/12/31 03:21:09;;;;;;;5.13;4.63;;;1.20;97.70;;;;;;5037585;28;20520;-43
2020/12/31 03:23:35;;;;;;;6.13;5.40;;;1.10;97.60;;;;;;5037541;28;20260;-45
2020/12/31 03:26:00;;;;;;;5.80;4.47;;;1.10;97.70;;;;;;5036575;28;20433;-44
2020/12/31 03:28:26;;;;;;;5.10;4.60;;;1.10;97.70;;;;;;5036419;28;20198;-44
2020/12/31 03:30:52;;;;;;;5.27;4.27;;;1.10;97.70;;;;;;5037478;28;20186;-45
2020/12/31 03:33:18;;;;;;;5.80;5.20;;;1.10;97.60;;;;;;5037108;28;20490;-44
2020/12/31 03:35:46;;;;;;;5.30;4.73;;;1.10;97.40;;;;;;5036907;28;20174;-44
2020/12/31 03:38:12;;;;;;;5.80;4.50;;;1.00;97.40;;;;;;5036616;28;20472;-45
2020/12/31 03:40:38;;;;;;;6.67;5.17;;;1.00;97.50;;;;;;5037051;28;20841;-44
2020/12/31 03:43:04;;;;;;;6.13;3.97;;;0.90;97.80;;;;;;5036979;28;20445;-45
2020/12/31 03:45:30;;;;;;;5.13;4.13;;;0.90;97.50;;;;;;5036639;28;20491;-44
2020/12/31 03:47:56;;;;;;;5.10;4.60;;;0.90;97.40;;;;;;5037021;28;20445;-44
2020/12/31 03:50:21;;;;;;;5.30;4.73;;;0.90;97.40;;;;;;5037086;28;20236;-45
2020/12/31 03:52:48;;;;;;;6.13;4.30;;;0.90;97.50;;;;;;5036792;28;20479;-45
2020/12/31 03:55:13;;;;;;;5.27;4.77;;;0.90;97.60;;;;;;5036598;28;20421;-44
2020/12/31 03:57:39;;;;;;;5.50;4.53;;;0.80;97.50;;;;;;5019248;28;20451;-44
2020/12/31 04:00:05;;;;;;;6.37;4.57;;;0.80;97.60;;;;;;5037930;28;20240;-45
2020/12/31 04:02:31;;;;;;;6.00;4.73;;;0.80;97.50;;;;;;5040164;28;20307;-45
2020/12/31 04:04:57;;;;;;;5.13;4.63;;;0.80;97.60;;;;;;5039883;28;20532;-44
2020/12/31 04:07:23;;;;;;;5.37;4.27;;;0.80;97.70;;;;;;5040677;28;20451;-45
2020/12/31 04:09:48;;;;;;;4.73;4.23;;;0.80;97.70;;;;;;5040016;28;20428;-45
2020/12/31 04:12:14;;;;;;;4.10;3.60;;;0.90;98.20;;;;;;5040127;28;20496;-45
2020/12/31 04:14:39;;;;;;;3.97;3.13;;;0.90;97.70;;;;;;5040022;28;20237;-44
2020/12/31 04:17:05;;;;;;;5.10;4.00;;;0.80;97.40;;;;;;5040683;28;20182;-44
2020/12/31 04:19:30;;;;;;;3.70;3.33;;;0.80;97.20;;;;;;5040119;28;20558;-44
2020/12/31 04:21:56;;;;;;;4.47;4.00;;;0.80;96.80;;;;;;5039710;28;20190;-44
2020/12/31 04:24:21;;;;;;;4.73;3.70;;;0.90;96.20;;;;;;5039598;28;20222;-44
2020/12/31 04:26:49;;;;;;;4.53;4.10;;;0.80;96.20;;;;;;5039646;28;20178;-44
2020/12/31 04:29:15;;;;;;;4.97;3.80;;;0.80;96.30;;;;;;5040043;28;20232;-45
2020/12/31 04:31:40;;;;;;;3.97;3.43;;;0.80;96.50;;;;;;5055188;28;20464;-44
2020/12/31 04:34:06;;;;;;;5.60;4.40;;;0.70;96.50;;;;;;5039858;28;20815;-45
2020/12/31 04:36:32;;;;;;;4.60;3.80;;;0.70;96.70;;;;;;5040133;28;20221;-44
2020/12/31 04:38:57;;;;;;;5.10;4.60;;;0.70;96.70;;;;;;5039906;28;20190;-44
2020/12/31 04:41:23;;;;;;;4.37;3.90;;;0.70;96.70;;;;;;5039134;28;20562;-45
2020/12/31 04:43:49;;;;;;;4.83;4.10;;;0.70;96.60;;;;;;5039725;28;20190;-44
2020/12/31 04:46:18;;;;;;;6.20;4.40;;;0.70;96.50;;;;;;5022074;28;20191;-44
2020/12/31 04:48:49;;;;;;;4.27;3.57;;;0.60;96.40;;;;;;5039676;28;20534;-45
2020/12/31 04:51:16;;;;;;;4.53;3.63;;;0.50;96.40;;;;;;5039531;28;20537;-44
2020/12/31 04:53:41;;;;;;;3.90;3.50;;;0.60;96.30;;;;;;5039971;28;20481;-44
2020/12/31 04:56:07;;;;;;;4.43;3.87;;;0.50;96.20;;;;;;5023471;28;20767;-44
2020/12/31 04:58:32;;;;;;;5.67;4.13;;;0.50;96.10;;;;;;5030377;28;20259;-43
2020/12/31 05:00:58;;;;;;;6.20;4.47;;;0.60;95.90;;;;;;5044522;28;20581;-44
2020/12/31 05:03:24;;;;;;;6.67;4.53;;;0.50;95.90;;;;;;5039815;28;20214;-43
2020/12/31 05:05:53;;;;;;;6.10;3.63;;;0.50;96.10;;;;;;5039075;28;20189;-44
2020/12/31 05:08:25;;;;;;;4.70;3.93;;;0.40;96.30;;;;;;5022130;28;20182;-44
2020/12/31 05:10:54;;;;;;;5.00;3.97;;;0.40;96.50;;;;;;5038422;28;20837;-42
2020/12/31 05:13:20;;;;;;;4.60;4.00;;;0.30;96.50;;;;;;5037948;28;20483;-44
2020/12/31 05:15:46;;;;;;;4.60;3.30;;;0.30;96.60;;;;;;5038952;28;20432;-44
2020/12/31 05:18:25;;;;;;;4.97;3.73;;;0.30;96.50;;;;;;5039651;28;20433;-44
2020/12/31 05:20:54;;;;;;;4.57;3.60;;;0.30;96.60;;;;;;5038386;28;20182;-44
2020/12/31 05:23:25;;;;;;;4.83;4.30;;;0.30;96.50;;;;;;5038944;28;20922;-44
2020/12/31 05:25:51;;;;;;;4.07;3.77;;;0.30;96.60;;;;;;5038428;28;20429;-44
2020/12/31 05:28:29;;;;;;;4.30;3.70;;;0.30;96.60;;;;;;5039267;28;20444;-44
2020/12/31 05:31:00;;;;;;;3.40;3.03;;;0.20;96.50;;;;;;5038857;28;20339;-44
2020/12/31 05:33:37;;;;;;;4.37;3.37;;;0.20;96.70;;;;;;5038726;28;20505;-43
2020/12/31 05:36:26;;;;;;;4.30;3.90;;;0.20;96.80;;;;;;5038760;28;20571;-44
2020/12/31 05:38:57;;;;;;;4.97;4.07;;;0.30;96.60;;;;;;5038683;28;20444;-45
2020/12/31 05:41:24;;;;;;;5.20;3.83;;;0.20;96.60;;;;;;5038739;28;20425;-45
2020/12/31 05:43:54;;;;;;;4.67;3.90;;;0.20;96.70;;;;;;5037808;28;20535;-45
2020/12/31 05:46:20;;;;;;;5.27;4.30;;;0.20;96.80;;;;;;5038139;28;20432;-44
2020/12/31 05:49:04;;;;;;;4.90;4.10;;;0.20;96.80;;;;;;5037217;28;20441;-44
2020/12/31 05:51:41;;;;;;;4.30;3.80;;;0.20;96.80;;;;;;5037948;28;20732;-45
2020/12/31 05:54:14;;;;;;;7.07;4.57;;;0.20;96.80;;;;;;5036814;28;20448;-45
2020/12/31 05:56:44;;;;;;;6.00;4.40;;;0.20;96.80;;;;;;5038414;28;20479;-45
2020/12/31 05:59:22;;;;;;;4.30;3.77;;;0.20;96.80;;;;;;5019646;28;20464;-45
2020/12/31 06:01:58;;;;;;;4.00;3.37;;;0.10;96.70;;;;;;5025207;28;20413;-44
2020/12/31 06:04:30;;;;;;;5.33;3.90;;;0.10;96.80;;;;;;5036988;28;20435;-45
2020/12/31 06:07:05;;;;;;;6.03;4.17;;;0.10;96.80;;;;;;5037382;28;20689;-45
2020/12/31 06:09:33;;;;;;;5.33;4.50;;;0.10;96.80;;;;;;5036159;28;20432;-45
2020/12/31 06:12:07;;;;;;;7.90;4.90;;;0.10;96.90;;;;;;5036649;28;20471;-44
2020/12/31 06:14:34;;;;;;;5.90;4.37;;;0.10;97.00;;;;;;5036528;28;20456;-45
2020/12/31 06:17:03;;;;;;;4.90;4.40;;;0.10;97.00;;;;;;5036641;28;20425;-45
2020/12/31 06:19:30;;;;;;;7.07;4.70;;;0.20;96.80;;;;;;5036279;28;20448;-43
2020/12/31 06:22:10;;;;;;;6.50;5.07;;;0.20;96.70;;;;;;5036259;28;20425;-43
2020/12/31 06:24:43;;;;;;;4.70;4.20;;;0.20;96.80;;;;;;5037027;28;20472;-45
2020/12/31 06:27:09;;;;;;;5.20;4.50;;;0.20;96.60;;;;;;5036341;28;20472;-45
2020/12/31 06:29:41;;;;;;;6.53;5.27;;;0.20;96.80;;;;;;5036633;28;20772;-44
2020/12/31 06:32:22;;;;;;;5.93;4.57;;;0.20;96.80;;;;;;5037609;28;20731;-45
2020/12/31 06:34:48;;;;;;;5.33;4.70;;;0.20;96.80;;;;;;5037268;28;20417;-44
2020/12/31 06:37:14;;;;;;;5.90;5.00;;;0.20;96.90;;;;;;5020086;28;20829;-44
2020/12/31 06:39:41;;;;;;;5.33;4.73;;;0.30;96.70;;;;;;5037847;28;20185;-45
2020/12/31 06:42:07;;;;;;;6.13;4.57;;;0.30;96.60;;;;;;5036937;28;20229;-45
2020/12/31 06:44:33;;;;;;;8.77;5.30;;;0.30;96.70;;;;;;5037071;28;20856;-43
2020/12/31 06:46:59;;;;;;;6.87;4.80;;;0.30;96.60;;;;;;5036759;28;20417;-45
2020/12/31 06:49:53;;;;;;;6.97;5.50;;;0.30;96.60;;;;;;5037649;28;20417;-45
2020/12/31 06:52:21;;;;;;;5.50;4.70;;;0.30;96.50;;;;;;5037928;28;20563;-44
2020/12/31 06:54:46;;;;;;;5.50;4.63;;;0.30;96.60;;;;;;5036554;28;20728;-45
2020/12/31 06:57:12;;;;;;;5.00;4.50;;;0.30;96.90;;;;;;5037579;28;20523;-45
2020/12/31 06:59:42;;;;;;;6.37;5.67;;;0.30;96.60;;;;;;5037495;28;20277;-45
2020/12/31 07:02:13;;;;;;;6.27;5.33;;;0.30;96.70;;;;;;5019889;28;20183;-45
2020/12/31 07:04:39;;;;;;;6.53;5.00;;;0.20;96.60;;;;;;5036999;28;20421;-45
2020/12/31 07:07:20;;;;;;;5.83;4.27;;;0.30;96.70;;;;;;5037648;28;20436;-43
2020/12/31 07:09:52;;;;;;;6.97;5.40;;;0.30;96.70;;;;;;5037758;28;20417;-45
2020/12/31 07:12:41;;;;;;;5.10;4.60;;;0.40;96.80;;;;;;5037266;28;20519;-45
2020/12/31 07:15:08;;;;;;;6.00;5.40;;;0.40;96.70;;;;;;5037045;28;20844;-44
2020/12/31 07:17:46;;;;;;;5.53;4.97;;;0.50;96.50;;;;;;5037063;28;20428;-45
2020/12/31 07:20:16;;;;;;;5.90;5.17;;;0.60;96.50;;;;;;5037452;28;20417;-45
2020/12/31 07:22:43;;;;;;;8.80;5.70;;;0.60;96.50;;;;;;5037079;28;20429;-45
2020/12/31 07:25:15;;;;;;;7.50;5.73;;;0.60;96.40;;;;;;5036565;28;20762;-44
2020/12/31 07:27:42;;;;;;;5.77;5.10;;;0.60;96.60;;;;;;5036911;28;20841;-45
2020/12/31 07:30:08;;;;;;;7.33;5.60;;;0.60;96.50;;;;;;5036989;28;20683;-45
2020/12/31 07:32:56;;;;;;;7.43;5.53;;;0.60;96.50;;;;;;5036943;28;20488;-45
2020/12/31 07:35:23;;;;;;;5.87;5.07;;;0.60;96.50;;;;;;5038283;28;20458;-44
2020/12/31 07:37:55;;;;;;;6.03;4.77;;;0.60;96.50;;;;;;5041223;28;20514;-44
2020/12/31 07:40:31;;;;;;;5.63;5.10;;;0.70;96.50;;;;;;5041379;28;20439;-45
2020/12/31 07:42:57;;;;;;;5.70;4.70;;;0.70;96.50;;;;;;5024029;28;20674;-45
2020/12/31 07:45:24;;;;;;;6.93;5.77;;;0.70;96.40;;;;;;5041368;28;20424;-45
2020/12/31 07:47:51;;;;;;;6.43;5.20;;;0.80;96.40;;;;;;5036411;28;20513;-45
2020/12/31 07:50:18;;;;;;;5.90;5.20;;;0.90;96.40;;;;;;5033680;28;20433;-46
2020/12/31 07:52:44;;;;;;;6.37;5.30;;;0.90;96.20;;;;;;5040791;28;20472;-45
2020/12/31 07:55:09;;;;;;;5.50;5.00;;;1.00;96.20;;;;;;5040510;28;20417;-45
2020/12/31 07:57:38;;;;;;;6.97;5.60;;;1.10;96.00;;;;;;5040879;28;20287;-45
2020/12/31 08:00:03;;;;;;;6.80;5.53;;;1.10;96.00;;;;;;5039593;28;20529;-45
2020/12/31 08:02:30;;;;;;;5.93;5.33;;;1.20;95.60;;;;;;5039247;28;20495;-45
2020/12/31 08:04:56;;;;;;;5.83;5.23;;;1.30;95.40;;;;;;5021028;28;20244;-45
2020/12/31 08:07:22;;;;;;;6.07;5.37;;;1.30;95.30;;;;;;5039063;28;20752;-45
2020/12/31 08:09:49;;;;;;;6.33;5.30;;;1.40;95.10;;;;;;5039048;28;20198;-45
2020/12/31 08:12:15;;;;;;;7.00;5.60;;;1.40;95.00;;;;;;5039149;28;20757;-45
2020/12/31 08:14:42;;;;;;;5.90;5.10;;;1.40;94.90;;;;;;5039025;28;20425;-45
2020/12/31 08:17:09;;;;;;;6.03;5.43;;;1.40;94.90;;;;;;5040219;28;20532;-45
2020/12/31 08:19:35;;;;;;;6.60;5.57;;;1.40;94.90;;;;;;5039762;28;20425;-45
2020/12/31 08:22:06;;;;;;;6.87;5.47;;;1.40;95.00;;;;;;5022914;28;20683;-45
2020/12/31 08:24:34;;;;;;;7.30;6.17;;;1.50;94.90;;;;;;5039060;28;20539;-45
2020/12/31 08:27:00;;;;;;;6.40;5.43;;;1.50;94.80;;;;;;5040289;28;20425;-45
2020/12/31 08:29:27;;;;;;;6.50;5.30;;;1.50;94.90;;;;;;5040095;28;20417;-45
2020/12/31 08:31:54;;;;;;;6.53;4.80;;;1.50;94.80;;;;;;5040134;28;20414;-45
2020/12/31 08:34:25;;;;;;;6.10;5.40;;;1.60;94.70;;;;;;5039761;28;20424;-45
2020/12/31 08:36:53;;;;;;;6.00;5.40;;;1.60;95.00;;;;;;5038306;28;20620;-45
2020/12/31 08:39:19;;;;;;;6.70;6.00;;;1.70;94.60;;;;;;5039719;28;20421;-45
2020/12/31 08:42:01;;;;;;;6.93;5.67;;;1.70;94.60;;;;;;5040292;28;20453;-45
2020/12/31 08:44:27;;;;;;;6.53;5.77;;;1.70;94.50;;;;;;5039557;28;20409;-45
2020/12/31 08:46:53;;;;;;;5.80;5.20;;;1.80;94.50;;;;;;5038348;28;20555;-45
2020/12/31 08:49:26;;;;;;;6.40;5.13;;;1.80;94.80;;;;;;5039811;28;20510;-45
2020/12/31 08:51:52;;;;;;;5.50;5.00;;;1.80;94.40;;;;;;5039765;28;20452;-45
2020/12/31 08:54:18;;;;;;;7.13;5.80;;;1.80;94.50;;;;;;5039392;28;20851;-45
2020/12/31 08:56:44;;;;;;;6.03;5.00;;;1.80;94.50;;;;;;5039968;28;20413;-45
2020/12/31 08:59:11;;;;;;;7.40;5.03;;;1.80;94.50;;;;;;5039540;28;20540;-45
2020/12/31 09:01:38;;;;;;;6.43;5.70;;;1.80;94.30;;;;;;5022228;28;20252;-45
2020/12/31 09:04:07;;;;;;;6.30;5.17;;;1.80;94.40;;;;;;5039417;28;20447;-45
2020/12/31 09:06:33;;;;;;;9.17;6.87;;;1.90;94.60;;;;;;5039551;28;20409;-45
2020/12/31 09:08:58;;;;;;;6.20;5.60;;;1.90;94.50;;;;;;5037845;28;20490;-46
2020/12/31 09:11:29;;;;;;;6.60;5.30;;;1.90;94.50;;;;;;5021947;28;20447;-44
2020/12/31 09:14:05;;;;;;;9.83;6.30;;;2.10;94.20;;;;;;5038658;28;20470;-45
2020/12/31 09:16:31;;;;;;;6.83;5.90;;;2.10;94.00;;;;;;5038802;28;20447;-45
2020/12/31 09:18:58;;;;;;;7.93;6.00;;;2.20;93.90;;;;;;5020826;28;20852;-45
2020/12/31 09:21:27;;;;;;;8.90;6.23;;;2.20;93.80;;;;;;5037671;28;20590;-45
2020/12/31 09:23:53;;;;;;;7.97;6.10;;;2.20;93.80;;;;;;5037421;28;20574;-45
2020/12/31 09:26:27;;;;;;;9.10;5.90;;;2.30;93.80;;;;;;5038361;28;20425;-45
2020/12/31 09:28:53;;;;;;;13.00;6.43;;;2.40;93.70;;;;;;5039648;28;20576;-45
2020/12/31 09:31:22;;;;;;;7.50;6.33;;;2.40;93.80;;;;;;5038382;28;20486;-44
2020/12/31 09:33:49;;;;;;;6.20;5.60;;;2.50;93.60;;;;;;5038518;28;20473;-45
2020/12/31 09:36:22;;;;;;;6.90;6.20;;;2.50;93.10;;;;;;5039116;28;20492;-45
2020/12/31 09:38:48;;;;;;;7.50;6.37;;;2.60;93.10;;;;;;5038662;28;20528;-45
2020/12/31 09:41:14;;;;;;;5.83;5.23;;;2.40;93.10;;;;;;5038742;28;20441;-45
2020/12/31 09:43:39;;;;;;;8.23;6.50;;;2.40;93.60;;;;;;5039119;28;20192;-45
2020/12/31 09:46:05;;;;;;;6.17;5.23;;;2.50;93.70;;;;;;5038278;28;20228;-45
2020/12/31 09:48:30;;;;;;;6.93;6.20;;;2.50;94.00;;;;;;5038518;28;20214;-45
2020/12/31 09:50:56;;;;;;;6.13;5.10;;;2.50;94.20;;;;;;5037467;28;20178;-45
2020/12/31 09:53:21;;;;;;;6.60;5.67;;;2.50;94.30;;;;;;5037362;28;20400;-45
2020/12/31 09:55:47;;;;;;;6.67;5.70;;;2.40;94.30;;;;;;5036219;28;20570;-45
2020/12/31 09:58:13;;;;;;;8.03;6.30;;;2.50;94.80;;;;;;5035375;28;20182;-45
2020/12/31 10:00:38;;;;;;;5.97;5.37;;;2.60;94.50;;;;;;5036198;28;20558;-45
2020/12/31 10:03:04;;;;;;;6.33;5.37;;;2.80;94.20;;;;;;5036227;28;20694;-45
2020/12/31 10:05:29;;;;;;;8.30;7.10;;;3.00;94.40;;;;;;5036529;28;20179;-45
2020/12/31 10:07:55;;;;;;;8.40;6.30;;;3.30;94.40;;;;;;5036496;28;20182;-45
2020/12/31 10:10:20;;;;;;;6.60;5.60;;;3.60;93.00;;;;;;5036666;28;20486;-45
2020/12/31 10:12:46;;;;;;;6.57;5.90;;;3.80;92.10;;;;;;5036571;28;20206;-45
2020/12/31 10:15:12;;;;;;;6.17;5.57;;;3.90;91.80;;;;;;5035818;28;20174;-45
2020/12/31 10:17:37;;;;;;;6.80;5.20;;;3.90;91.30;;;;;;5036276;28;20210;-45
2020/12/31 10:20:05;;;;;;;6.40;5.20;;;3.60;91.50;;;;;;5036436;28;20249;-44
2020/12/31 10:22:31;;;;;;;5.70;5.10;;;3.40;92.40;;;;;;5036272;28;20189;-45
2020/12/31 10:24:57;;;;;;;5.30;4.80;;;3.20;93.20;;;;;;5036133;28;20421;-45
2020/12/31 10:27:22;;;;;;;5.97;5.33;;;3.10;93.80;;;;;;5036953;28;20720;-45
2020/12/31 10:29:48;;;;;;;5.70;5.20;;;3.00;94.30;;;;;;5038595;28;20210;-45
2020/12/31 10:32:14;;;;;;;5.87;5.27;;;2.60;94.80;;;;;;5037835;28;20210;-45
2020/12/31 10:34:40;;;;;;;5.97;4.93;;;2.60;95.70;;;;;;5037687;28;20175;-44
2020/12/31 10:37:05;;;;;;;6.90;5.77;;;2.30;96.70;;;;;;5037609;28;20227;-45
2020/12/31 10:39:31;;;;;;;6.43;5.67;;;2.10;97.80;;;;;;5037640;28;20447;-45
2020/12/31 10:41:56;;;;;;;10.50;7.70;;;2.00;98.40;;;;;;5038040;28;20182;-45
2020/12/31 10:44:22;;;;;;;7.00;6.30;;;1.90;99.10;;;;;;5037135;28;20198;-45
2020/12/31 10:46:47;;;;;;;7.97;6.67;;;2.00;99.40;;;;;;5019368;28;20571;-45
2020/12/31 10:49:14;;;;;;;8.10;6.30;;;2.10;99.90;;;;;;5038015;28;20174;-45
2020/12/31 10:51:40;;;;;;;9.50;5.97;;;2.30;99.90;;;;;;5037334;28;20175;-44
2020/12/31 10:54:07;;;;;;;9.03;6.80;;;2.30;99.30;;;;;;5035879;28;20479;-44
2020/12/31 10:56:32;;;;;;;9.27;5.80;;;2.30;99.30;;;;;;5035139;28;20413;-44
2020/12/31 10:58:58;;;;;;;7.80;6.93;;;2.40;99.20;;;;;;5036564;28;20425;-45
2020/12/31 11:01:24;;;;;;;6.60;5.33;;;2.50;99.30;;;;;;5036449;28;20178;-45
2020/12/31 11:03:50;;;;;;;7.27;6.10;;;2.50;99.00;;;;;;5036631;28;20433;-45
2020/12/31 11:06:20;;;;;;;8.00;6.77;;;2.60;99.10;;;;;;5035199;28;20174;-45
2020/12/31 11:08:46;;;;;;;7.50;6.10;;;2.70;99.10;;;;;;5035543;28;20235;-45
2020/12/31 11:11:16;;;;;;;7.77;6.33;;;2.90;99.20;;;;;;5035097;28;20514;-45
2020/12/31 11:13:42;;;;;;;7.30;6.00;;;3.00;98.50;;;;;;5036704;28;20307;-45
2020/12/31 11:16:08;;;;;;;6.17;4.93;;;3.20;98.00;;;;;;5037047;28;20475;-45
2020/12/31 11:18:34;;;;;;;5.83;4.53;;;3.30;97.80;;;;;;5037378;28;20691;-45
2020/12/31 11:21:00;;;;;;;5.37;4.87;;;3.30;97.40;;;;;;5036024;28;20499;-45
2020/12/31 11:23:25;;;;;;;6.40;4.80;;;3.20;97.30;;;;;;5036521;28;20238;-45
2020/12/31 11:25:51;;;;;;;7.30;5.97;;;3.20;97.30;;;;;;5036131;28;20264;-45
2020/12/31 11:28:16;;;;;;;5.93;4.93;;;3.20;97.30;;;;;;5036753;28;20248;-45
2020/12/31 11:30:43;;;;;;;6.13;5.23;;;3.20;97.40;;;;;;5036423;28;20178;-45
2020/12/31 11:33:08;;;;;;;7.10;5.80;;;3.20;97.50;;;;;;5036064;28;20305;-44
2020/12/31 11:35:34;;;;;;;7.67;6.27;;;3.10;97.50;;;;;;5036635;28;20520;-45
2020/12/31 11:37:59;;;;;;;5.93;5.07;;;3.20;97.70;;;;;;5035166;28;20240;-45
2020/12/31 11:40:25;;;;;;;6.63;5.67;;;3.30;97.80;;;;;;5034688;28;20170;-45
2020/12/31 11:42:51;;;;;;;5.70;5.10;;;3.40;97.50;;;;;;5035568;28;20186;-43
2020/12/31 11:45:16;;;;;;;6.00;5.17;;;3.60;97.50;;;;;;5036670;28;20174;-45
2020/12/31 11:47:42;;;;;;;5.63;5.03;;;3.80;97.20;;;;;;5019460;28;20521;-45
2020/12/31 11:50:08;;;;;;;8.40;4.93;;;4.00;96.90;;;;;;5035546;28;20174;-45
2020/12/31 11:52:33;;;;;;;5.53;5.03;;;4.30;96.20;;;;;;5034904;28;20367;-45
2020/12/31 11:54:59;;;;;;;6.57;5.33;;;4.40;95.90;;;;;;5036284;28;20404;-45
2020/12/31 11:57:24;;;;;;;6.47;5.53;;;4.40;95.60;;;;;;5036771;28;20207;-45
2020/12/31 11:59:50;;;;;;;5.90;4.93;;;4.30;95.50;;;;;;5036285;28;20170;-46
2020/12/31 12:02:16;;;;;;;5.63;5.00;;;4.20;95.60;;;;;;5035997;28;20186;-45
2020/12/31 12:04:41;;;;;;;5.50;5.00;;;4.00;95.80;;;;;;5035054;28;20474;-45
2020/12/31 12:07:07;;;;;;;4.93;4.43;;;3.90;95.80;;;;;;5035929;28;20185;-44
2020/12/31 12:09:32;;;;;;;5.17;4.43;;;3.90;96.10;;;;;;5035099;28;20185;-45
2020/12/31 12:11:58;;;;;;;5.50;4.87;;;3.80;96.30;;;;;;5036180;28;20593;-45
2020/12/31 12:14:24;;;;;;;5.17;4.50;;;3.80;96.20;;;;;;5034933;28;20182;-45
2020/12/31 12:16:50;;;;;;;5.07;4.57;;;3.80;96.30;;;;;;5036041;28;20175;-44
2020/12/31 12:19:16;;;;;;;6.03;4.13;;;3.90;96.60;;;;;;5034495;28;20179;-45
2020/12/31 12:21:41;;;;;;;8.60;6.17;;;3.70;96.20;;;;;;5035794;28;20475;-45
2020/12/31 12:24:07;;;;;;;5.60;4.60;;;3.70;96.60;;;;;;5020442;28;20865;-45
2020/12/31 12:26:37;;;;;;;6.60;4.90;;;3.60;96.80;;;;;;5037616;28;20174;-45
2020/12/31 12:29:04;;;;;;;6.27;4.80;;;3.50;97.00;;;;;;5038480;28;20709;-45
2020/12/31 12:31:31;;;;;;;5.50;4.67;;;3.50;97.40;;;;;;5039573;28;20483;-45
2020/12/31 12:33:56;;;;;;;8.53;6.33;;;3.50;97.40;;;;;;5039418;28;20465;-45
2020/12/31 12:36:22;;;;;;;6.90;4.80;;;3.50;97.50;;;;;;5039368;28;20471;-45
2020/12/31 12:38:48;;;;;;;6.20;5.00;;;3.50;97.60;;;;;;5038651;28;20559;-45
2020/12/31 12:41:13;;;;;;;6.77;4.80;;;3.50;97.90;;;;;;5037326;28;20171;-45
2020/12/31 12:43:39;;;;;;;5.83;5.07;;;3.50;97.60;;;;;;5037324;28;20186;-45
2020/12/31 12:46:04;;;;;;;23.73;8.27;;;3.60;97.60;;;;;;5038675;28;20178;-43
2020/12/31 12:48:30;;;;;;;9.87;6.97;;;3.80;99.90;;;;;;5039478;28;20191;-43
2020/12/31 12:50:56;;;;;;;6.10;4.40;;;4.70;99.90;;;;;;5039974;28;20454;-37
2020/12/31 12:53:21;;;;;;;9.83;5.27;;;5.20;99.90;;;;;;5039426;28;20484;-37
2020/12/31 12:55:47;;;;;;;4.83;4.33;;;5.10;95.90;;;;;;5040661;28;20198;-37
2020/12/31 12:58:13;;;;;;;6.10;4.27;;;4.90;95.40;;;;;;5023068;28;20275;-37
2020/12/31 13:00:38;;;;;;;5.37;4.80;;;4.60;95.50;;;;;;5022680;28;20171;-36